createdAt,value
2022-08-20T00:02:47.113Z,21.41
2022-08-20T00:05:56.820Z,21.28
2022-08-20T00:08:59.066Z,21.38
2022-08-20T00:12:01.687Z,21.34
2022-08-20T00:15:05.972Z,21.42
2022-08-20T00:18:09.475Z,21.43
2022-08-20T00:21:18.724Z,21.36
2022-08-20T00:24:21.847Z,21.25
2022-08-20T00:27:24.047Z,21.27
2022-08-20T00:30:27.429Z,21.24
2022-08-20T00:33:29.834Z,21.26
2022-08-20T00:36:33.002Z,21.28
2022-08-20T00:39:35.930Z,21.16
2022-08-20T00:42:48.785Z,21.10
2022-08-20T00:45:55.458Z,21.11
2022-08-20T00:48:58.684Z,21.01
2022-08-20T00:52:07.887Z,21.06
2022-08-20T00:55:12.250Z,21.06
2022-08-20T00:58:15.086Z,21.05
2022-08-20T01:01:17.968Z,20.97
2022-08-20T01:04:20.525Z,21.00
2022-08-20T01:07:32.578Z,20.98
2022-08-20T01:10:40.754Z,20.99
2022-08-20T01:13:45.649Z,21.00
2022-08-20T01:16:50.863Z,21.02
2022-08-20T01:19:58.950Z,21.05
2022-08-20T01:23:34.814Z,21.02
2022-08-20T01:26:41.590Z,21.08
2022-08-20T01:29:44.395Z,20.77
2022-08-20T01:32:46.891Z,20.86
2022-08-20T01:35:50.285Z,20.82
2022-08-20T01:38:54.638Z,20.85
2022-08-20T01:42:31.151Z,20.96
2022-08-20T01:45:33.756Z,20.92
2022-08-20T01:48:38.497Z,20.83
2022-08-20T01:51:41.730Z,20.74
2022-08-20T01:54:43.891Z,20.65
2022-08-20T01:57:48.396Z,20.68
2022-08-20T02:00:50.588Z,20.67
2022-08-20T02:03:54.195Z,20.53
2022-08-20T02:06:59.289Z,20.33
2022-08-20T02:10:02.615Z,20.08
2022-08-20T02:13:05.786Z,20.22
2022-08-20T02:16:08.222Z,20.32
2022-08-20T02:19:19.279Z,20.36
2022-08-20T02:22:31.400Z,20.40
2022-08-20T02:25:37.398Z,20.42
2022-08-20T02:28:39.611Z,20.36
2022-08-20T02:32:24.375Z,20.32
2022-08-20T02:35:09.998Z,20.29
2022-08-20T02:38:12.650Z,20.24
2022-08-20T02:41:15.360Z,20.29
2022-08-20T02:44:20.490Z,20.31
2022-08-20T02:47:22.657Z,20.26
2022-08-20T02:50:26.929Z,20.34
2022-08-20T02:53:33.207Z,20.34
2022-08-20T02:56:35.679Z,20.23
2022-08-20T02:59:38.798Z,20.21
2022-08-20T03:02:41.478Z,20.24
2022-08-20T03:05:44.375Z,20.28
2022-08-20T03:08:46.889Z,20.30
2022-08-20T03:11:49.297Z,20.30
2022-08-20T03:14:51.754Z,20.08
2022-08-20T03:17:53.948Z,20.18
2022-08-20T03:20:56.562Z,20.10
2022-08-20T03:23:59.696Z,19.97
2022-08-20T03:27:02.216Z,20.09
2022-08-20T03:30:07.873Z,20.10
2022-08-20T03:33:10.562Z,20.06
2022-08-20T03:36:12.806Z,20.13
2022-08-20T03:39:21.678Z,20.22
2022-08-20T03:42:23.907Z,20.22
2022-08-20T03:45:27.701Z,20.32
2022-08-20T03:48:30.145Z,20.30
2022-08-20T03:51:57.861Z,20.22
2022-08-20T03:54:56.495Z,20.26
2022-08-20T03:58:02.939Z,20.42
2022-08-20T04:01:07.060Z,20.36
2022-08-20T04:04:12.500Z,20.36
2022-08-20T04:07:26.152Z,20.45
2022-08-20T04:10:30.323Z,20.41
2022-08-20T04:13:32.908Z,20.55
2022-08-20T04:16:35.581Z,20.62
2022-08-20T04:19:38.972Z,20.65
2022-08-20T04:22:41.567Z,20.64
2022-08-20T04:25:45.606Z,20.65
2022-08-20T04:28:48.147Z,20.65
2022-08-20T04:31:50.349Z,20.68
2022-08-20T04:34:53.636Z,20.68
2022-08-20T04:38:07.887Z,20.78
2022-08-20T04:41:10.386Z,20.80
2022-08-20T04:44:25.620Z,20.81
2022-08-20T04:47:34.826Z,20.60
2022-08-20T04:50:39.767Z,20.67
2022-08-20T04:53:43.098Z,20.75
2022-08-20T04:56:45.535Z,20.71
2022-08-20T04:59:48.031Z,20.77
2022-08-20T05:02:50.169Z,20.73
2022-08-20T05:05:53.558Z,20.83
2022-08-20T05:08:58.150Z,21.04
2022-08-20T05:12:00.665Z,21.21
2022-08-20T05:15:04.364Z,21.20
2022-08-20T05:18:08.299Z,21.29
2022-08-20T05:21:10.542Z,21.43
2022-08-20T05:24:13.132Z,21.56
2022-08-20T05:27:24.616Z,21.68
2022-08-20T05:30:33.538Z,21.95
2022-08-20T05:33:38.661Z,22.34
2022-08-20T05:36:49.409Z,22.97
2022-08-20T05:39:52.053Z,23.42
2022-08-20T05:42:54.729Z,22.92
2022-08-20T05:45:59.200Z,23.04
2022-08-20T05:49:02.145Z,23.07
2022-08-20T05:52:05.450Z,23.03
2022-08-20T05:55:13.189Z,22.73
2022-08-20T05:58:25.527Z,22.68
2022-08-20T06:01:28.301Z,22.56
2022-08-20T06:04:32.111Z,22.71
2022-08-20T06:07:34.454Z,23.44
2022-08-20T06:10:38.253Z,25.09
2022-08-20T06:13:42.425Z,25.20
2022-08-20T06:16:57.233Z,25.14
2022-08-20T06:20:04.205Z,25.59
2022-08-20T06:23:08.674Z,25.51
2022-08-20T06:26:11.094Z,26.00
2022-08-20T06:29:13.531Z,26.01
2022-08-20T06:32:16.477Z,25.40
2022-08-20T06:35:20.208Z,25.40
2022-08-20T06:38:23.095Z,24.79
2022-08-20T06:41:35.939Z,24.67
2022-08-20T06:44:38.800Z,24.47
2022-08-20T06:47:44.182Z,24.44
2022-08-20T06:50:48.068Z,24.64
2022-08-20T06:53:50.873Z,24.86
2022-08-20T06:56:54.610Z,25.11
2022-08-20T06:59:58.458Z,25.86
2022-08-20T07:03:02.136Z,26.05
2022-08-20T07:06:05.413Z,26.12
2022-08-20T07:09:08.155Z,25.90
2022-08-20T07:12:10.663Z,25.43
2022-08-20T07:15:14.444Z,25.16
2022-08-20T07:18:17.907Z,25.15
2022-08-20T07:21:30.835Z,24.99
2022-08-20T07:24:34.971Z,24.71
2022-08-20T07:27:41.768Z,24.41
2022-08-20T07:31:12.138Z,24.18
2022-08-20T07:34:15.602Z,24.01
2022-08-20T07:37:18.036Z,23.72
2022-08-20T07:40:26.234Z,23.58
2022-08-20T07:43:30.715Z,23.34
2022-08-20T07:46:33.021Z,23.20
2022-08-20T07:49:39.729Z,22.99
2022-08-20T07:52:41.894Z,22.67
2022-08-20T07:55:57.144Z,22.32
2022-08-20T07:59:02.250Z,22.03
2022-08-20T08:02:05.734Z,21.91
2022-08-20T08:05:09.185Z,21.72
2022-08-20T08:08:17.600Z,21.60
2022-08-20T08:11:21.227Z,21.29
2022-08-20T08:14:28.888Z,20.98
2022-08-20T08:17:31.599Z,20.97
2022-08-20T08:20:46.761Z,20.96
2022-08-20T08:23:50.171Z,20.79
2022-08-20T08:26:52.528Z,20.55
2022-08-20T08:29:55.060Z,20.47
2022-08-20T08:33:16.954Z,20.44
2022-08-20T08:36:19.537Z,20.47
2022-08-20T08:39:22.197Z,20.38
2022-08-20T08:42:34.377Z,20.43
2022-08-20T08:45:45.506Z,20.32
2022-08-20T08:48:53.269Z,20.33
2022-08-20T08:52:02.337Z,20.33
2022-08-20T08:55:10.468Z,20.37
2022-08-20T08:58:16.879Z,20.35
2022-08-20T09:01:55.615Z,20.37
2022-08-20T09:04:44.920Z,20.38
2022-08-20T09:07:51.139Z,20.52
2022-08-20T09:11:00.623Z,20.49
2022-08-20T09:14:03.390Z,20.56
2022-08-20T09:17:06.301Z,20.34
2022-08-20T09:20:10.557Z,20.29
2022-08-20T09:23:12.756Z,20.28
2022-08-20T09:26:15.260Z,20.21
2022-08-20T09:29:18.075Z,20.14
2022-08-20T09:32:22.801Z,20.15
2022-08-20T09:35:25.175Z,20.12
2022-08-20T09:38:27.789Z,20.07
2022-08-20T09:41:30.820Z,20.13
2022-08-20T09:44:33.448Z,20.15
2022-08-20T09:47:35.723Z,20.18
2022-08-20T09:50:48.009Z,20.17
2022-08-20T09:53:50.604Z,20.19
2022-08-20T09:56:53.066Z,20.27
2022-08-20T10:00:00.079Z,20.36
2022-08-20T10:03:03.422Z,20.34
2022-08-20T10:06:06.094Z,20.31
2022-08-20T10:09:08.408Z,20.30
2022-08-20T10:12:10.908Z,20.55
2022-08-20T10:15:13.793Z,20.97
2022-08-20T10:18:16.374Z,21.48
2022-08-20T10:21:18.552Z,22.11
2022-08-20T10:24:21.896Z,22.53
2022-08-20T10:27:24.073Z,23.07
2022-08-20T10:30:26.636Z,23.29
2022-08-20T10:33:28.813Z,23.41
2022-08-20T10:36:31.471Z,23.34
2022-08-20T10:39:33.938Z,23.18
2022-08-20T10:42:41.811Z,23.19
2022-08-20T10:45:44.881Z,23.23
2022-08-20T10:48:47.398Z,23.64
2022-08-20T10:51:49.646Z,23.74
2022-08-20T10:54:52.407Z,23.49
2022-08-20T10:57:54.627Z,23.56
2022-08-20T11:00:57.051Z,23.76
2022-08-20T11:03:59.228Z,23.76
2022-08-20T11:07:50.797Z,23.58
2022-08-20T11:10:48.628Z,23.96
2022-08-20T11:13:51.155Z,24.04
2022-08-20T11:16:53.444Z,24.30
2022-08-20T11:19:57.298Z,24.34
2022-08-20T11:22:59.608Z,24.84
2022-08-20T11:26:02.329Z,25.00
2022-08-20T11:29:04.512Z,25.10
2022-08-20T11:32:06.967Z,25.41
2022-08-20T11:35:40.410Z,25.70
2022-08-20T11:38:33.095Z,25.88
2022-08-20T11:41:35.277Z,25.68
2022-08-20T11:44:38.003Z,25.87
2022-08-20T11:47:41.217Z,25.66
2022-08-20T11:50:44.453Z,25.62
2022-08-20T11:53:47.750Z,25.29
2022-08-20T11:56:51.893Z,25.33
2022-08-20T11:59:56.045Z,25.48
2022-08-20T12:02:58.605Z,25.50
2022-08-20T12:06:02.535Z,25.52
2022-08-20T12:09:06.826Z,25.59
2022-08-20T12:12:09.981Z,25.68
2022-08-20T12:15:12.452Z,25.51
2022-08-20T12:18:14.823Z,25.48
2022-08-20T12:21:17.048Z,25.64
2022-08-20T12:24:20.683Z,25.45
2022-08-20T12:27:31.741Z,25.51
2022-08-20T12:30:34.819Z,25.63
2022-08-20T12:33:37.009Z,25.72
2022-08-20T12:36:39.395Z,25.69
2022-08-20T12:39:43.688Z,25.77
2022-08-20T12:42:46.287Z,25.63
2022-08-20T12:45:48.422Z,25.51
2022-08-20T12:48:50.848Z,25.70
2022-08-20T12:51:52.965Z,25.69
2022-08-20T12:54:56.030Z,25.52
2022-08-20T12:58:00.901Z,25.42
2022-08-20T13:01:03.350Z,25.65
2022-08-20T13:04:05.561Z,25.62
2022-08-20T13:07:11.639Z,25.63
2022-08-20T13:10:20.854Z,25.63
2022-08-20T13:13:23.236Z,25.57
2022-08-20T13:16:25.751Z,25.61
2022-08-20T13:19:30.870Z,25.50
2022-08-20T13:22:33.092Z,25.34
2022-08-20T13:25:35.523Z,25.39
2022-08-20T13:28:37.698Z,25.39
2022-08-20T13:31:41.421Z,25.64
2022-08-20T13:34:44.563Z,25.65
2022-08-20T13:37:48.210Z,25.64
2022-08-20T13:40:50.599Z,25.55
2022-08-20T13:43:53.072Z,25.66
2022-08-20T13:46:55.176Z,25.53
2022-08-20T13:50:08.124Z,25.39
2022-08-20T13:53:10.244Z,25.62
2022-08-20T13:56:12.798Z,25.54
2022-08-20T13:59:15.001Z,25.67
2022-08-20T14:02:18.386Z,25.62
2022-08-20T14:05:21.316Z,25.37
2022-08-20T14:08:24.927Z,25.39
2022-08-20T14:11:27.315Z,25.50
2022-08-20T14:14:29.484Z,25.48
2022-08-20T14:17:34.594Z,25.54
2022-08-20T14:20:38.827Z,25.55
2022-08-20T14:23:43.883Z,25.55
2022-08-20T14:26:46.096Z,25.56
2022-08-20T14:29:50.080Z,25.62
2022-08-20T14:32:52.743Z,25.58
2022-08-20T14:35:55.660Z,25.55
2022-08-20T14:38:58.196Z,25.58
2022-08-20T14:42:00.583Z,25.53
2022-08-20T14:45:06.119Z,25.27
2022-08-20T14:48:09.535Z,25.42
2022-08-20T14:51:13.747Z,25.39
2022-08-20T14:54:17.014Z,25.33
2022-08-20T14:57:20.250Z,25.29
2022-08-20T15:00:29.387Z,25.23
2022-08-20T15:03:31.533Z,25.32
2022-08-20T15:06:34.021Z,25.36
2022-08-20T15:09:36.528Z,25.27
2022-08-20T15:12:38.961Z,25.24
2022-08-20T15:15:45.335Z,25.03
2022-08-20T15:18:49.803Z,24.92
2022-08-20T15:21:58.777Z,24.74
2022-08-20T15:25:02.331Z,24.65
2022-08-20T15:28:06.809Z,24.38
2022-08-20T15:31:11.299Z,24.36
2022-08-20T15:34:18.090Z,24.41
2022-08-20T15:37:23.153Z,24.41
2022-08-20T15:40:28.978Z,24.27
2022-08-20T15:43:33.015Z,24.20
2022-08-20T15:46:37.506Z,24.18
2022-08-20T15:49:42.430Z,24.13
2022-08-20T15:52:45.408Z,24.11
2022-08-20T15:55:59.814Z,24.03
2022-08-20T15:59:21.958Z,24.08
2022-08-20T16:02:43.400Z,24.02
2022-08-20T16:06:06.387Z,23.91
2022-08-20T16:09:34.467Z,23.82
2022-08-20T16:12:42.430Z,23.75
2022-08-20T16:15:49.323Z,23.69
2022-08-20T16:18:53.860Z,23.71
2022-08-20T16:21:58.145Z,23.67
2022-08-20T16:25:01.798Z,23.67
2022-08-20T16:28:22.966Z,23.62
2022-08-20T16:31:31.564Z,23.72
2022-08-20T16:34:55.629Z,23.61
2022-08-20T16:38:11.667Z,23.63
2022-08-20T16:41:31.089Z,23.55
2022-08-20T16:44:41.752Z,23.50
2022-08-20T16:47:46.413Z,23.47
2022-08-20T16:51:06.876Z,23.45
2022-08-20T16:54:10.275Z,23.34
2022-08-20T16:57:17.139Z,23.26
2022-08-20T17:00:30.316Z,23.20
2022-08-20T17:03:39.660Z,23.15
2022-08-20T17:06:48.214Z,23.07
2022-08-20T17:09:50.950Z,23.02
2022-08-20T17:13:00.425Z,23.01
2022-08-20T17:16:16.692Z,22.94
2022-08-20T17:19:27.964Z,22.83
2022-08-20T17:22:39.389Z,22.73
2022-08-20T17:25:41.839Z,22.67
2022-08-20T17:28:52.282Z,22.54
2022-08-20T17:32:00.911Z,22.41
2022-08-20T17:35:04.589Z,22.44
2022-08-20T17:38:07.222Z,22.33
2022-08-20T17:41:17.556Z,22.15
2022-08-20T17:44:33.665Z,22.08
2022-08-20T17:47:39.983Z,22.06
2022-08-20T17:50:44.037Z,21.99
2022-08-20T17:53:53.063Z,21.87
2022-08-20T17:57:01.621Z,21.73
2022-08-20T18:00:09.150Z,21.64
2022-08-20T18:03:23.058Z,21.53
2022-08-20T18:06:48.874Z,21.50
2022-08-20T18:09:58.469Z,21.46
2022-08-20T18:13:14.418Z,21.38
2022-08-20T18:16:28.011Z,21.34
2022-08-20T18:20:07.841Z,21.29
2022-08-20T18:23:16.446Z,21.23
2022-08-20T18:26:37.394Z,21.13
2022-08-20T18:29:43.988Z,21.18
2022-08-20T18:33:00.114Z,21.11
2022-08-20T18:36:19.490Z,21.03
2022-08-20T18:39:29.659Z,21.02
2022-08-20T18:42:35.878Z,20.98
2022-08-20T18:45:38.059Z,20.98
2022-08-20T18:48:54.784Z,20.97
2022-08-20T18:52:07.983Z,20.73
2022-08-20T18:55:42.129Z,20.65
2022-08-20T18:59:01.930Z,20.60
2022-08-20T19:02:19.472Z,20.59
2022-08-20T19:05:55.819Z,20.64
2022-08-20T19:09:26.266Z,20.67
2022-08-20T19:12:54.699Z,20.68
2022-08-20T19:16:04.526Z,20.66
2022-08-20T19:19:17.987Z,20.66
2022-08-20T19:22:21.169Z,20.64
2022-08-20T19:25:35.054Z,20.61
2022-08-20T19:28:52.214Z,20.58
2022-08-20T19:32:03.804Z,20.53
2022-08-20T19:35:07.855Z,20.63
2022-08-20T19:38:16.424Z,20.54
2022-08-20T19:41:31.188Z,20.54
2022-08-20T19:44:43.010Z,20.56
2022-08-20T19:48:00.639Z,20.55
2022-08-20T19:51:20.224Z,20.59
2022-08-20T19:54:27.235Z,20.61
2022-08-20T19:57:29.566Z,20.61
2022-08-20T20:00:45.321Z,20.62
2022-08-20T20:04:16.680Z,20.65
2022-08-20T20:07:26.387Z,20.64
2022-08-20T20:10:34.962Z,20.63
2022-08-20T20:13:39.962Z,20.66
2022-08-20T20:16:43.220Z,20.63
2022-08-20T20:19:56.836Z,20.67
2022-08-20T20:23:11.378Z,20.76
2022-08-20T20:26:18.168Z,20.79
2022-08-20T20:29:28.252Z,20.90
2022-08-20T20:32:33.757Z,20.99
2022-08-20T20:35:36.196Z,21.05
2022-08-20T20:38:58.247Z,21.03
2022-08-20T20:42:03.885Z,21.11
2022-08-20T20:45:18.154Z,21.17
2022-08-20T20:48:25.247Z,21.16
2022-08-20T20:51:33.768Z,21.22
2022-08-20T20:54:45.035Z,21.17
2022-08-20T20:57:48.840Z,21.14
2022-08-20T21:00:53.631Z,21.09
2022-08-20T21:03:55.873Z,21.18
2022-08-20T21:07:07.559Z,21.16
2022-08-20T21:10:09.861Z,21.07
2022-08-20T21:13:12.328Z,21.08
2022-08-20T21:16:15.407Z,21.07
2022-08-20T21:19:17.968Z,21.03
2022-08-20T21:22:20.744Z,20.98
2022-08-20T21:25:25.205Z,20.97
2022-08-20T21:28:28.774Z,20.99
2022-08-20T21:31:36.394Z,20.95
2022-08-20T21:34:38.996Z,20.94
2022-08-20T21:37:41.707Z,20.98
2022-08-20T21:40:44.806Z,20.94
2022-08-20T21:43:49.512Z,20.92
2022-08-20T21:46:53.338Z,20.93
2022-08-20T21:49:55.852Z,20.92
2022-08-20T21:53:00.043Z,20.88
2022-08-20T21:56:02.926Z,20.88
2022-08-20T21:59:08.213Z,20.97
2022-08-20T22:02:11.213Z,20.81
2022-08-20T22:05:15.201Z,20.78
2022-08-20T22:08:19.052Z,20.74
2022-08-20T22:11:21.594Z,20.74
2022-08-20T22:14:25.281Z,20.74
2022-08-20T22:17:27.998Z,20.67
2022-08-20T22:20:31.945Z,20.60
2022-08-20T22:23:34.479Z,20.60
2022-08-20T22:26:39.400Z,20.68
2022-08-20T22:29:42.140Z,20.68
2022-08-20T22:32:51.420Z,20.69
2022-08-20T22:35:56.768Z,20.74
2022-08-20T22:38:59.095Z,20.72
2022-08-20T22:42:01.604Z,20.74
2022-08-20T22:45:04.032Z,20.71
2022-08-20T22:48:18.044Z,20.67
2022-08-20T22:51:30.216Z,20.71
2022-08-20T22:54:34.236Z,20.74
2022-08-20T22:57:37.755Z,20.62
2022-08-20T23:00:40.614Z,20.70
2022-08-20T23:03:43.598Z,20.72
2022-08-20T23:06:46.036Z,20.74
2022-08-20T23:09:48.272Z,20.60
2022-08-20T23:12:50.932Z,20.65
2022-08-20T23:15:53.277Z,20.68
2022-08-20T23:18:55.784Z,20.61
2022-08-20T23:21:58.078Z,20.64
2022-08-20T23:25:02.650Z,20.59
2022-08-20T23:28:05.322Z,20.61
2022-08-20T23:31:07.794Z,20.61
2022-08-20T23:34:10.834Z,20.60
2022-08-20T23:37:18.845Z,20.62
2022-08-20T23:40:26.945Z,20.62
2022-08-20T23:43:31.116Z,20.62
2022-08-20T23:46:35.826Z,20.59
2022-08-20T23:49:38.268Z,20.50
2022-08-20T23:52:40.595Z,20.50
2022-08-20T23:55:42.986Z,20.41
2022-08-20T23:58:45.384Z,20.45
